Terminal Aerodrome Forecast
Issued by NWS

Home | Current Version | Previous Version | Graphics & Text | Print | Product List | Glossary On
Versions: 1 2 3 4 5 6 7 8 9 10 11 12 13 14 15 16
000
FTUS43 KBIS 260500
TAFDIK
TAF
KDIK 260525Z 2606/2706 22004KT P6SM SCT025 SCT140
     FM261000 18004KT P6SM SCT025 BKN090
     FM261600 15008KT P6SM VCSH OVC040
     FM270000 14005KT P6SM SCT035 BKN050
     FM270300 14005KT P6SM SCT050=

USA.gov is the U.S. government's official web portal to all federal, state and local government web resources and services.